Time;durP1;ratioP1;P1;durP2;ratioP2;P2;SDS_P1;SDS_P2;PMS_P1;PMS_P2;Temp;Humidity;BMP_temperature;BMP_pressure;BME280_temperature;BME280_humidity;BME280_pressure;Samples;Min_cycle;Max_cycle;Signal;HPM_P1;HPM_P2
2023/06/17 00:00:09;;;;;;;13.90;11.52;;;15.40;99.90;;;15.32;100.00;100767.97;5000099;28;20041;-79
2023/06/17 00:02:35;;;;;;;12.55;10.45;;;15.40;99.90;;;15.18;100.00;100772.09;5004781;28;20042;-79
2023/06/17 00:05:02;;;;;;;13.52;11.45;;;15.30;99.90;;;15.07;100.00;100768.31;4992203;28;20038;-79
2023/06/17 00:07:29;;;;;;;13.82;11.43;;;15.10;99.90;;;14.96;100.00;100768.09;5005387;28;20098;-79
2023/06/17 00:09:55;;;;;;;14.63;11.90;;;15.00;99.90;;;14.89;100.00;100772.09;4998978;28;20478;-79
2023/06/17 00:12:22;;;;;;;14.50;11.65;;;14.90;99.90;;;14.88;100.00;100767.66;5002608;28;20171;-79
2023/06/17 00:14:48;;;;;;;15.50;11.93;;;14.90;99.90;;;14.80;100.00;100766.13;4998357;28;20046;-79
2023/06/17 00:17:14;;;;;;;13.30;11.45;;;14.80;99.90;;;14.71;100.00;100764.81;4999772;28;20041;-79
2023/06/17 00:19:40;;;;;;;13.20;11.77;;;14.80;99.90;;;14.60;100.00;100761.81;5003800;28;20366;-79
2023/06/17 00:22:08;;;;;;;16.63;11.15;;;14.70;99.90;;;14.42;100.00;100749.09;5003382;28;20035;-79
2023/06/17 00:24:35;;;;;;;14.68;11.68;;;14.50;99.90;;;14.34;100.00;100749.47;4999680;28;20046;-79
2023/06/17 00:27:01;;;;;;;12.75;11.38;;;14.40;99.90;;;14.18;100.00;100746.34;4997994;28;20034;-79
2023/06/17 00:29:27;;;;;;;13.70;12.18;;;14.30;99.90;;;14.14;100.00;100747.06;4973006;28;20044;-79
2023/06/17 00:31:52;;;;;;;15.63;12.88;;;14.30;99.90;;;14.11;100.00;100753.88;4994545;28;20038;-79
2023/06/17 00:34:18;;;;;;;16.77;13.45;;;14.20;99.90;;;13.97;100.00;100738.69;4992150;28;20041;-80
2023/06/17 00:36:44;;;;;;;16.02;13.57;;;14.10;99.90;;;14.03;100.00;100743.22;4979731;28;20026;-79
2023/06/17 00:39:09;;;;;;;17.92;13.40;;;14.10;99.90;;;13.92;100.00;100734.78;4998370;28;20037;-79
2023/06/17 00:41:35;;;;;;;16.02;13.23;;;14.00;99.90;;;13.85;100.00;100739.53;5002120;28;20029;-79
2023/06/17 00:44:01;;;;;;;15.50;13.85;;;13.90;99.90;;;13.84;100.00;100737.03;4981203;28;20076;-79
2023/06/17 00:46:46;;;;;;;17.98;14.40;;;13.90;99.90;;;13.80;100.00;100732.00;5007029;28;20228;-79
2023/06/17 00:49:12;;;;;;;17.65;15.13;;;13.80;99.90;;;13.80;100.00;100728.44;4979013;28;20372;-79
2023/06/17 00:51:38;;;;;;;18.17;15.00;;;13.80;99.90;;;13.78;100.00;100719.59;4993418;28;20093;-79
2023/06/17 00:54:07;;;;;;;18.17;15.15;;;13.80;99.90;;;13.77;100.00;100726.16;4993041;28;20027;-79
2023/06/17 00:56:35;;;;;;;19.85;16.05;;;13.80;99.90;;;13.74;100.00;100723.88;4998314;28;20533;-79
2023/06/17 00:59:03;;;;;;;22.30;17.25;;;13.80;99.90;;;13.77;100.00;100726.16;4989987;28;20031;-79
2023/06/17 01:01:29;;;;;;;18.80;16.52;;;13.80;99.90;;;13.74;100.00;100716.50;5002911;28;20120;-79
2023/06/17 01:03:59;;;;;;;23.02;17.95;;;13.80;99.90;;;13.83;100.00;100707.94;5001537;28;20034;-79
2023/06/17 01:06:47;;;;;;;23.05;18.27;;;13.80;99.90;;;13.89;100.00;100716.06;5000412;28;20088;-79
2023/06/17 01:09:22;;;;;;;23.58;18.20;;;13.90;99.90;;;14.05;100.00;100705.41;5004143;28;20072;-79
2023/06/17 01:11:55;;;;;;;20.13;17.27;;;14.00;99.90;;;13.96;100.00;100713.19;4996654;28;20038;-79
2023/06/17 01:14:21;;;;;;;23.33;17.75;;;13.90;99.90;;;13.85;100.00;100706.63;4985741;28;20116;-78
2023/06/17 01:16:50;;;;;;;23.88;18.52;;;13.90;99.90;;;13.85;100.00;100708.53;4997441;28;20122;-79
2023/06/17 01:19:23;;;;;;;24.13;18.58;;;13.80;99.90;;;13.75;100.00;100701.72;5005047;28;20046;-79
2023/06/17 01:21:53;;;;;;;22.73;17.95;;;13.70;99.90;;;13.71;100.00;100703.28;4996947;28;20038;-79
2023/06/17 01:24:29;;;;;;;21.42;18.02;;;13.70;99.90;;;13.65;100.00;100702.31;4997033;28;20042;-79
2023/06/17 01:26:57;;;;;;;23.48;17.38;;;13.60;99.90;;;13.52;100.00;100697.03;5000123;28;20046;-79
2023/06/17 01:29:32;;;;;;;21.27;18.67;;;13.50;99.90;;;13.49;100.00;100692.03;5000317;28;20038;-79
2023/06/17 01:32:00;;;;;;;20.17;17.90;;;13.50;99.90;;;13.43;100.00;100698.44;4996737;28;20519;-79
2023/06/17 01:34:43;;;;;;;19.45;17.20;;;13.40;99.90;;;13.32;100.00;100687.22;5006496;28;20091;-78
2023/06/17 01:37:14;;;;;;;23.60;17.58;;;13.40;99.90;;;13.15;100.00;100692.53;4984301;28;20122;-79
2023/06/17 01:39:44;;;;;;;20.52;17.15;;;13.20;99.90;;;12.88;100.00;100672.88;4979108;28;20045;-79
2023/06/17 01:42:27;;;;;;;21.23;17.65;;;13.00;99.90;;;12.80;100.00;100679.50;4993169;28;20083;-79
2023/06/17 01:44:55;;;;;;;19.35;16.38;;;12.90;99.90;;;12.72;100.00;100666.97;5003310;28;20395;-79
2023/06/17 01:47:21;;;;;;;19.02;16.85;;;12.80;99.90;;;12.71;100.00;100672.69;4983373;28;20473;-79
2023/06/17 01:49:47;;;;;;;19.20;16.65;;;12.80;99.90;;;12.65;100.00;100683.50;4996531;28;20045;-78
2023/06/17 01:52:13;;;;;;;19.23;15.88;;;12.70;99.90;;;12.54;100.00;100681.50;5010197;28;20029;-79
2023/06/17 01:54:38;;;;;;;23.90;16.42;;;12.50;99.90;;;12.41;100.00;100677.03;5003331;28;20034;-78
2023/06/17 01:57:05;;;;;;;20.23;16.73;;;12.50;99.90;;;12.33;100.00;100685.56;4994679;28;20022;-78
2023/06/17 01:59:32;;;;;;;19.95;17.52;;;12.40;99.90;;;12.27;100.00;100681.00;4995332;28;20061;-79
2023/06/17 02:01:58;;;;;;;19.98;17.70;;;12.30;99.90;;;12.18;100.00;100684.00;5008320;28;20065;-78
2023/06/17 02:04:24;;;;;;;26.20;19.75;;;12.20;99.90;;;12.25;100.00;100670.28;5005944;28;20041;-78
2023/06/17 02:06:51;;;;;;;24.88;19.20;;;12.30;99.90;;;12.30;100.00;100664.13;4990345;28;20034;-78
2023/06/17 02:09:18;;;;;;;25.55;20.73;;;12.30;99.90;;;12.30;100.00;100656.75;5002518;28;20034;-78
2023/06/17 02:11:43;;;;;;;25.10;21.60;;;12.30;99.90;;;12.46;100.00;100647.06;5005114;28;20101;-78
2023/06/17 02:14:09;;;;;;;24.45;20.40;;;12.50;99.90;;;12.43;100.00;100641.25;5008416;28;20041;-78
2023/06/17 02:16:39;;;;;;;22.05;19.23;;;12.50;99.90;;;12.40;100.00;100642.53;4979509;28;20490;-79
2023/06/17 02:19:06;;;;;;;22.10;19.17;;;12.50;99.90;;;12.25;100.00;100639.38;4989872;28;20034;-78
2023/06/17 02:21:31;;;;;;;24.70;20.25;;;12.30;99.90;;;12.22;100.00;100640.66;5002598;28;20057;-78
2023/06/17 02:23:57;;;;;;;23.60;19.02;;;12.20;99.90;;;12.17;100.00;100638.59;4986901;28;20372;-77
2023/06/17 02:26:23;;;;;;;25.73;18.77;;;12.20;99.90;;;11.96;100.00;100630.81;4986518;28;20092;-78
2023/06/17 02:28:48;;;;;;;21.52;18.95;;;12.10;99.90;;;11.92;100.00;100642.19;4976932;28;20042;-77
2023/06/17 02:31:14;;;;;;;28.83;21.42;;;12.00;99.90;;;11.85;100.00;100632.41;4991571;28;20048;-78
2023/06/17 02:33:40;;;;;;;26.67;21.00;;;12.00;99.90;;;11.98;100.00;100640.44;4972541;28;20395;-78
2023/06/17 02:36:06;;;;;;;32.45;22.92;;;12.00;99.90;;;12.07;100.00;100627.34;4978518;28;20031;-78
2023/06/17 02:38:32;;;;;;;30.88;24.95;;;12.10;99.90;;;12.13;100.00;100625.63;5004982;28;20096;-78
2023/06/17 02:40:59;;;;;;;25.48;21.75;;;12.20;99.90;;;12.08;100.00;100609.88;4997508;28;20022;-78
2023/06/17 02:43:24;;;;;;;29.55;23.67;;;12.10;99.90;;;12.14;100.00;100617.16;4981214;28;20052;-78
2023/06/17 02:45:50;;;;;;;28.88;22.77;;;12.10;99.90;;;12.23;100.00;100613.09;4987287;28;20117;-78
2023/06/17 02:48:17;;;;;;;26.40;22.23;;;12.20;99.90;;;12.25;100.00;100612.84;4992309;28;20042;-78
2023/06/17 02:50:43;;;;;;;28.75;23.05;;;12.20;99.90;;;12.27;100.00;100610.69;4991145;28;20137;-78
2023/06/17 02:53:10;;;;;;;28.42;22.40;;;12.20;99.90;;;12.36;100.00;100601.13;4986622;28;20058;-79
2023/06/17 02:55:36;;;;;;;28.03;22.07;;;12.30;99.90;;;12.28;100.00;100592.41;4979745;28;20093;-79
2023/06/17 02:58:10;;;;;;;28.02;23.00;;;12.20;99.90;;;12.30;100.00;100598.47;4991969;28;20724;-79
2023/06/17 03:00:45;;;;;;;27.48;22.88;;;12.20;99.90;;;12.22;100.00;100603.19;4988508;28;20034;-79
2023/06/17 03:03:12;;;;;;;29.08;22.95;;;12.10;99.90;;;12.21;100.00;100608.88;4975853;28;20067;-79
2023/06/17 03:05:38;;;;;;;26.42;21.83;;;12.10;99.90;;;12.15;100.00;100613.38;5000693;28;20038;-79
2023/06/17 03:08:08;;;;;;;24.98;21.33;;;12.00;99.90;;;12.11;100.00;100616.81;5005172;28;20037;-78
2023/06/17 03:10:34;;;;;;;25.05;20.10;;;12.00;99.90;;;12.11;100.00;100622.28;4968976;28;20082;-79
2023/06/17 03:13:06;;;;;;;25.85;20.58;;;12.00;99.90;;;12.07;100.00;100621.88;4980730;28;20034;-79
2023/06/17 03:15:33;;;;;;;25.48;20.98;;;11.90;99.90;;;12.10;100.00;100626.06;4989314;28;20029;-79
2023/06/17 03:17:59;;;;;;;25.25;20.38;;;11.90;99.90;;;12.14;100.00;100628.09;4975313;28;20041;-79
2023/06/17 03:20:28;;;;;;;27.98;22.70;;;11.90;99.90;;;12.17;100.00;100626.81;4998953;28;20148;-78
2023/06/17 03:22:55;;;;;;;26.50;21.52;;;12.00;99.90;;;12.22;100.00;100621.50;4992870;28;20486;-79
2023/06/17 03:25:23;;;;;;;26.40;22.27;;;12.00;99.90;;;12.36;100.00;100642.16;5006151;28;20133;-79
2023/06/17 03:27:51;;;;;;;29.30;22.38;;;12.10;99.90;;;12.45;100.00;100641.84;4975237;28;20037;-80
2023/06/17 03:30:17;;;;;;;29.25;22.52;;;12.20;99.90;;;12.55;100.00;100649.53;4977752;28;20049;-79
2023/06/17 03:32:44;;;;;;;25.38;20.75;;;12.30;99.90;;;12.71;100.00;100648.88;4993521;28;20054;-80
2023/06/17 03:35:10;;;;;;;30.77;20.17;;;12.30;99.90;;;12.94;100.00;100659.09;4987491;28;20065;-79
2023/06/17 03:37:36;;;;;;;27.08;20.80;;;12.40;99.90;;;12.98;100.00;100673.13;4997703;28;20671;-80
2023/06/17 03:40:02;;;;;;;23.85;18.80;;;12.40;99.90;;;12.98;100.00;100675.06;4988571;28;20049;-79
2023/06/17 03:42:32;;;;;;;24.23;18.38;;;12.40;99.90;;;13.07;100.00;100690.94;5008590;28;20041;-80
2023/06/17 03:44:58;;;;;;;21.13;18.10;;;12.40;99.90;;;13.06;100.00;100700.22;4993421;28;20034;-80
2023/06/17 03:47:24;;;;;;;23.85;18.45;;;12.40;99.90;;;13.05;100.00;100697.69;4976429;28;20030;-79
2023/06/17 03:49:50;;;;;;;21.35;17.35;;;12.40;99.90;;;13.03;100.00;100697.94;4985604;28;20034;-79
2023/06/17 03:52:16;;;;;;;23.45;18.00;;;12.40;99.90;;;13.07;100.00;100706.53;5006803;28;20313;-79
2023/06/17 03:54:41;;;;;;;19.95;17.52;;;12.40;99.90;;;13.07;100.00;100712.84;4976070;28;20034;-79
2023/06/17 03:57:07;;;;;;;22.10;16.23;;;12.50;99.90;;;13.07;100.00;100703.78;4995398;28;20072;-79
2023/06/17 03:59:35;;;;;;;19.17;17.05;;;12.40;99.90;;;13.03;100.00;100714.38;5003496;28;20026;-79
2023/06/17 04:02:02;;;;;;;21.05;16.55;;;12.40;99.90;;;13.08;100.00;100714.53;4997921;28;20041;-79
2023/06/17 04:04:28;;;;;;;21.48;16.35;;;12.50;99.90;;;13.20;100.00;100721.94;4982478;28;20045;-79
2023/06/17 04:06:54;;;;;;;19.90;16.05;;;12.60;99.90;;;13.36;100.00;100721.28;4990019;28;20026;-79
2023/06/17 04:09:20;;;;;;;17.27;15.43;;;12.80;99.90;;;13.49;100.00;100702.97;4984408;28;20048;-79
2023/06/17 04:11:46;;;;;;;21.02;15.75;;;13.00;99.90;;;13.70;100.00;100715.31;5009223;28;20034;-79
2023/06/17 04:14:11;;;;;;;22.85;15.02;;;13.20;99.90;;;13.90;100.00;100719.59;4990846;28;20121;-80
2023/06/17 04:16:37;;;;;;;17.40;14.73;;;13.40;99.90;;;14.08;100.00;100710.47;4991880;28;20478;-79
2023/06/17 04:19:03;;;;;;;16.00;13.90;;;13.60;99.90;;;14.21;100.00;100701.16;4988943;28;20034;-79
2023/06/17 04:21:29;;;;;;;18.90;14.68;;;13.80;99.90;;;14.26;100.00;100705.91;4987173;28;20529;-79
2023/06/17 04:23:55;;;;;;;16.58;13.45;;;13.90;99.90;;;14.30;100.00;100690.63;5005804;28;20458;-79
2023/06/17 04:26:22;;;;;;;15.02;12.70;;;14.10;99.90;;;14.55;100.00;100708.72;4998545;28;20038;-79
2023/06/17 04:28:48;;;;;;;16.92;13.20;;;14.20;99.90;;;14.77;100.00;100711.69;4976259;28;20041;-79
2023/06/17 04:31:15;;;;;;;17.17;12.23;;;14.40;99.90;;;14.96;100.00;100715.09;4982347;28;20039;-79
2023/06/17 04:33:42;;;;;;;16.40;13.00;;;14.60;99.90;;;15.01;100.00;100709.69;4993378;28;20564;-79
2023/06/17 04:36:09;;;;;;;15.82;13.10;;;14.70;99.90;;;14.90;100.00;100705.91;4992775;28;20498;-79
2023/06/17 04:38:38;;;;;;;16.38;13.30;;;14.70;99.90;;;14.91;100.00;100701.25;5001888;28;20129;-81
2023/06/17 04:41:07;;;;;;;17.00;13.32;;;14.70;99.90;;;15.06;100.00;100712.53;4997986;28;20034;-78
2023/06/17 04:43:36;;;;;;;15.55;12.77;;;14.80;99.90;;;15.14;100.00;100718.72;5008040;28;20034;-83
2023/06/17 04:46:03;;;;;;;20.85;12.82;;;14.90;99.90;;;15.21;100.00;100714.72;4986891;28;20050;-76
2023/06/17 04:48:29;;;;;;;16.58;13.32;;;14.90;99.90;;;15.40;100.00;100717.28;5001257;28;20773;-78
2023/06/17 04:50:58;;;;;;;16.00;13.00;;;15.10;99.90;;;15.55;100.00;100704.88;4976282;28;20120;-78
2023/06/17 04:53:25;;;;;;;17.73;13.85;;;15.40;99.90;;;15.37;100.00;100718.59;4997929;28;20463;-78
2023/06/17 04:55:51;;;;;;;18.33;15.38;;;15.40;99.90;;;15.38;100.00;100723.03;5006088;28;20065;-80
2023/06/17 04:58:17;;;;;;;22.40;15.13;;;15.50;99.90;;;15.65;100.00;100716.91;4976821;28;20045;-79
2023/06/17 05:00:46;;;;;;;17.90;14.43;;;15.70;99.90;;;15.79;100.00;100716.56;5004645;28;20030;-79
2023/06/17 05:03:16;;;;;;;28.40;15.68;;;15.70;99.90;;;15.78;100.00;100701.97;4982988;28;20038;-79
2023/06/17 05:05:42;;;;;;;23.10;16.42;;;15.80;99.90;;;15.79;100.00;100724.81;4998258;28;20773;-79
2023/06/17 05:08:07;;;;;;;22.48;16.88;;;15.80;99.90;;;15.43;100.00;100724.19;5000926;28;20041;-79
2023/06/17 05:10:34;;;;;;;19.85;16.48;;;15.80;99.90;;;15.76;100.00;100728.88;4992546;28;20033;-80
2023/06/17 05:13:00;;;;;;;21.83;17.65;;;15.80;99.90;;;15.64;100.00;100712.44;4975224;28;20030;-79
2023/06/17 05:15:28;;;;;;;23.85;17.00;;;15.90;99.90;;;15.93;100.00;100711.56;5003721;28;20391;-79
2023/06/17 05:17:54;;;;;;;25.75;17.40;;;16.00;99.90;;;16.09;100.00;100707.13;4991594;28;20061;-79
2023/06/17 05:20:20;;;;;;;21.73;17.38;;;16.00;99.90;;;16.01;100.00;100710.31;4995395;28;20046;-79
2023/06/17 05:22:46;;;;;;;26.65;18.10;;;16.20;99.90;;;15.75;100.00;100709.88;5000011;28;20093;-78
2023/06/17 05:25:12;;;;;;;27.25;18.70;;;16.10;99.90;;;15.49;100.00;100717.69;4994499;28;20112;-80
2023/06/17 05:27:38;;;;;;;29.33;19.13;;;16.00;99.90;;;15.81;100.00;100717.97;4991313;28;20034;-79
2023/06/17 05:30:06;;;;;;;24.02;18.20;;;16.00;99.90;;;16.11;100.00;100718.72;4978835;28;20082;-79
2023/06/17 05:32:32;;;;;;;;;;;16.10;99.90;;;15.74;100.00;100714.53;5006950;28;20037;-79
2023/06/17 05:34:59;;;;;;;23.17;17.55;;;16.20;99.90;;;15.95;100.00;100724.00;4993437;28;19918;-80
2023/06/17 05:37:25;;;;;;;25.55;18.75;;;16.20;99.90;;;16.06;100.00;100729.66;4995442;28;20038;-81
2023/06/17 05:39:51;;;;;;;26.38;19.63;;;16.20;99.90;;;16.31;100.00;100725.63;5004909;28;20522;-77
2023/06/17 05:42:17;;;;;;;28.70;19.10;;;16.50;99.90;;;16.20;100.00;100735.63;5004404;28;20065;-78
2023/06/17 05:44:44;;;;;;;27.27;19.48;;;16.50;99.90;;;16.01;100.00;100735.91;4990314;28;20339;-78
2023/06/17 05:47:11;;;;;;;32.75;20.63;;;16.40;99.90;;;15.67;100.00;100742.22;4992432;28;20041;-77
2023/06/17 05:49:37;;;;;;;30.88;20.50;;;16.10;99.90;;;15.49;100.00;100728.69;4993203;28;20035;-78
2023/06/17 05:52:03;;;;;;;30.95;21.88;;;16.00;99.90;;;15.53;100.00;100740.88;5013952;28;21883;-79
2023/06/17 05:54:29;;;;;;;36.55;21.95;;;15.90;99.90;;;15.91;100.00;100735.75;5011105;28;20065;-80
2023/06/17 05:56:55;;;;;;;33.80;20.80;;;16.00;99.90;;;15.78;100.00;100742.38;4990970;28;20038;-79
2023/06/17 05:59:22;;;;;;;32.90;21.63;;;16.10;99.90;;;15.80;100.00;100732.81;5022029;28;20029;-78
2023/06/17 06:01:48;;;;;;;34.40;23.02;;;16.20;99.90;;;15.82;100.00;100743.56;5005608;28;20027;-81
2023/06/17 06:04:15;;;;;;;36.67;23.33;;;16.20;99.90;;;15.86;100.00;100746.66;5007213;28;20091;-80
2023/06/17 06:06:40;;;;;;;38.42;23.23;;;16.20;99.90;;;15.88;100.00;100748.06;5019711;28;20113;-79
2023/06/17 06:09:06;;;;;;;34.95;23.55;;;16.20;99.90;;;15.81;100.00;100747.38;5008554;28;20045;-83
2023/06/17 06:11:33;;;;;;;37.67;25.27;;;16.20;99.90;;;15.93;100.00;100750.94;5000289;28;20038;-78
2023/06/17 06:13:59;;;;;;;35.22;23.70;;;16.20;99.90;;;16.03;100.00;100754.94;4990871;28;20487;-78
2023/06/17 06:16:25;;;;;;;37.35;24.17;;;16.30;99.90;;;16.06;100.00;100757.16;4995827;28;20402;-78
2023/06/17 06:18:52;;;;;;;36.00;24.23;;;16.40;99.90;;;16.07;100.00;100764.34;4993324;28;20526;-80
2023/06/17 06:21:17;;;;;;;38.28;23.95;;;16.50;99.90;;;16.01;100.00;100768.91;4977350;28;20042;-80
2023/06/17 06:23:43;;;;;;;36.60;24.48;;;16.40;99.90;;;15.93;100.00;100759.19;5001341;28;20058;-80
2023/06/17 06:26:10;;;;;;;40.28;24.27;;;16.30;99.90;;;16.19;100.00;100756.84;4988972;28;20027;-78
2023/06/17 06:28:37;;;;;;;39.92;24.38;;;16.50;99.90;;;16.25;100.00;100752.22;5005138;28;20360;-81
2023/06/17 06:31:03;;;;;;;35.63;23.85;;;16.60;99.90;;;16.39;100.00;100755.44;5001799;28;20727;-78
2023/06/17 06:33:29;;;;;;;45.08;25.40;;;16.60;99.90;;;16.44;100.00;100755.53;4990901;28;20145;-79
2023/06/17 06:35:55;;;;;;;40.58;25.00;;;16.80;99.90;;;16.40;100.00;100759.88;4975514;28;20085;-79
2023/06/17 06:38:22;;;;;;;54.75;26.67;;;16.70;99.90;;;16.42;100.00;100756.88;4996978;28;20049;-79
2023/06/17 06:40:48;;;;;;;43.03;25.55;;;16.80;99.90;;;16.26;100.00;100764.91;4974038;28;20038;-78
2023/06/17 06:43:14;;;;;;;44.67;26.67;;;16.70;99.90;;;16.41;100.00;100767.03;4986484;28;20033;-79
2023/06/17 06:45:54;;;;;;;48.53;26.40;;;16.70;99.90;;;16.61;100.00;100760.16;4993297;28;20501;-78
2023/06/17 06:48:21;;;;;;;49.63;28.43;;;16.80;99.90;;;16.73;100.00;100762.81;5004284;28;20048;-79
2023/06/17 06:50:47;;;;;;;44.95;26.48;;;17.00;99.90;;;17.07;100.00;100763.53;4998137;28;20287;-79
2023/06/17 06:53:13;;;;;;;49.25;26.75;;;17.30;99.90;;;17.14;100.00;100755.06;4998455;28;20030;-80
2023/06/17 06:55:39;;;;;;;44.03;26.77;;;17.40;99.90;;;17.31;100.00;100745.88;4991429;28;20121;-80
2023/06/17 06:58:05;;;;;;;42.83;26.15;;;17.50;99.90;;;17.28;100.00;100752.75;5001754;28;20030;-81
2023/06/17 07:00:31;;;;;;;41.88;25.85;;;17.70;99.90;;;17.48;100.00;100756.78;4993936;28;20808;-84
2023/06/17 07:02:58;;;;;;;42.63;24.02;;;17.80;99.90;;;17.31;100.00;100763.25;4993564;28;20026;-81
2023/06/17 07:05:24;;;;;;;41.10;24.58;;;17.70;99.90;;;17.13;100.00;100761.69;4999743;28;20117;-81
2023/06/17 07:07:56;;;;;;;42.25;23.90;;;17.70;99.90;;;17.53;100.00;100759.63;4996876;28;20039;-82
2023/06/17 07:10:22;;;;;;;43.55;23.98;;;17.90;99.90;;;17.22;100.00;100764.78;4994910;28;20135;-80
2023/06/17 07:12:48;;;;;;;42.60;23.38;;;18.00;99.90;;;17.29;100.00;100765.44;4991737;28;20343;-81
2023/06/17 07:15:15;;;;;;;43.65;24.15;;;17.90;99.90;;;17.89;100.00;100764.59;4994007;28;20046;-80
2023/06/17 07:17:43;;;;;;;37.08;22.55;;;18.10;99.90;;;18.02;100.00;100763.34;4982919;28;20049;-80
2023/06/17 07:20:09;;;;;;;39.53;23.38;;;18.30;99.90;;;18.00;100.00;100771.88;4995436;28;20022;-80
2023/06/17 07:22:36;;;;;;;38.03;23.67;;;18.20;99.90;;;18.14;100.00;100761.25;4987423;28;20026;-81
2023/06/17 07:25:02;;;;;;;38.83;22.85;;;18.40;99.90;;;18.09;100.00;100763.97;4987196;28;20041;-82
2023/06/17 07:27:29;;;;;;;40.80;24.65;;;18.50;99.90;;;17.82;100.00;100786.91;4978514;28;20033;-81
2023/06/17 07:29:54;;;;;;;35.85;22.48;;;18.30;99.90;;;18.17;100.00;100766.25;5004379;28;20401;-79
2023/06/17 07:32:20;;;;;;;36.22;22.83;;;18.40;99.90;;;18.37;100.00;100770.25;5006917;28;20057;-78
2023/06/17 07:34:46;;;;;;;36.38;22.95;;;18.60;99.90;;;17.85;100.00;100778.09;4996732;28;20037;-79
2023/06/17 07:37:12;;;;;;;34.33;22.67;;;18.50;99.90;;;18.13;100.00;100776.16;4977152;28;20406;-79
2023/06/17 07:39:38;;;;;;;38.38;24.52;;;18.70;99.90;;;18.30;100.00;100742.84;5007722;28;20038;-80
2023/06/17 07:42:04;;;;;;;38.95;24.70;;;18.80;99.90;;;18.80;100.00;100762.72;4999554;28;20496;-80
2023/06/17 07:44:32;;;;;;;41.00;24.10;;;19.10;99.90;;;18.32;100.00;100760.00;4980922;28;20046;-80
2023/06/17 07:46:57;;;;;;;37.13;23.90;;;19.00;99.90;;;18.53;100.00;100776.69;4993063;28;20108;-80
2023/06/17 07:49:23;;;;;;;37.22;24.42;;;19.20;99.90;;;18.10;100.00;100771.97;4985445;28;20124;-79
2023/06/17 07:51:49;;;;;;;36.15;23.35;;;18.90;99.90;;;18.66;100.00;100775.38;4991908;28;20033;-80
2023/06/17 07:54:15;;;;;;;37.70;24.45;;;19.00;99.90;;;18.35;100.00;100777.97;5007601;28;20057;-79
2023/06/17 07:56:41;;;;;;;36.72;23.40;;;19.00;99.90;;;18.37;100.00;100773.00;5001931;28;20699;-78
2023/06/17 07:59:07;;;;;;;35.45;21.98;;;18.90;99.90;;;17.47;100.00;100788.22;4999975;28;20104;-79
2023/06/17 08:01:33;;;;;;;32.65;21.75;;;18.40;99.90;;;18.15;100.00;100786.91;4999380;28;20037;-77
2023/06/17 08:03:59;;;;;;;31.50;20.23;;;18.50;99.90;;;18.47;100.00;100780.53;5008077;28;20489;-78
2023/06/17 08:06:24;;;;;;;28.60;18.50;;;18.70;99.90;;;17.99;100.00;100772.97;5005929;28;20026;-78
2023/06/17 08:08:51;;;;;;;28.08;19.08;;;18.70;99.90;;;18.63;100.00;100778.69;4987323;28;20497;-78
2023/06/17 08:11:17;;;;;;;28.67;19.50;;;18.90;99.90;;;19.02;100.00;100764.50;5005261;28;20410;-79
2023/06/17 08:13:43;;;;;;;24.55;19.02;;;19.30;99.90;;;18.74;100.00;100782.34;5003436;28;20026;-79
2023/06/17 08:16:08;;;;;;;25.85;18.67;;;19.30;99.90;;;18.58;100.00;100778.66;5002425;28;20559;-78
2023/06/17 08:18:34;;;;;;;24.95;18.08;;;19.10;99.90;;;17.94;100.00;100778.47;4999948;28;20045;-78
2023/06/17 08:21:00;;;;;;;25.23;18.80;;;18.90;99.90;;;17.97;100.00;100766.91;4987188;28;20034;-79
2023/06/17 08:23:25;;;;;;;24.55;18.30;;;18.70;99.90;;;18.44;100.00;100770.84;5004118;28;20034;-78
2023/06/17 08:25:51;;;;;;;26.15;18.10;;;18.80;99.90;;;19.23;100.00;100775.63;5001503;28;20482;-80
2023/06/17 08:28:17;;;;;;;24.30;17.63;;;19.30;99.90;;;19.45;100.00;100771.81;5000068;28;20034;-76
2023/06/17 08:30:43;;;;;;;25.60;19.23;;;19.70;99.90;;;18.49;100.00;100775.56;5005408;28;20042;-81
2023/06/17 08:33:08;;;;;;;27.55;18.92;;;19.40;99.90;;;18.25;100.00;100779.53;5000088;28;20038;-76
2023/06/17 08:35:34;;;;;;;27.48;20.10;;;19.20;99.90;;;18.28;100.00;100783.72;5002789;28;20118;-79
2023/06/17 08:38:01;;;;;;;26.40;19.10;;;18.90;99.90;;;19.26;100.00;100773.16;4999897;28;20478;-78
2023/06/17 08:40:27;;;;;;;27.42;19.25;;;19.50;99.90;;;19.43;100.00;100771.25;5001721;28;20038;-78
2023/06/17 08:43:01;;;;;;;25.15;18.88;;;19.80;99.90;;;20.38;94.89;100755.22;4999768;28;20037;-78
2023/06/17 08:45:28;;;;;;;25.10;18.23;;;20.50;99.90;;;20.17;94.57;100763.59;5000148;28;20041;-78
2023/06/17 08:47:54;;;;;;;22.85;17.58;;;20.70;99.90;;;19.70;95.98;100773.78;5000022;28;20034;-80
2023/06/17 08:50:20;;;;;;;24.83;19.60;;;20.60;99.90;;;18.98;100.00;100779.97;4999281;28;20486;-76
2023/06/17 08:52:48;;;;;;;25.50;19.38;;;20.10;99.90;;;18.90;100.00;100774.94;4993005;28;20920;-79
2023/06/17 08:55:15;;;;;;;26.48;18.88;;;19.80;99.90;;;19.43;100.00;100777.63;5006149;28;20040;-84
2023/06/17 08:57:42;;;;;;;23.88;17.67;;;20.10;99.90;;;20.61;93.57;100772.34;5005256;28;20117;-79
2023/06/17 09:00:10;;;;;;;25.50;18.35;;;20.80;99.90;;;19.78;95.02;100769.63;5004829;28;20049;-79
2023/06/17 09:02:37;;;;;;;25.00;18.50;;;20.70;99.90;;;19.42;100.00;100777.91;5002186;28;20151;-77
2023/06/17 09:05:05;;;;;;;23.35;17.83;;;20.50;99.90;;;18.61;100.00;100772.59;5004631;28;20086;-82
2023/06/17 09:07:30;;;;;;;24.50;18.58;;;19.80;99.90;;;19.06;100.00;100771.16;5001801;28;20029;-76
2023/06/17 09:10:08;;;;;;;26.27;18.63;;;19.80;99.90;;;19.10;100.00;100768.69;4983854;28;20569;-76
2023/06/17 09:12:40;;;;;;;26.17;19.00;;;19.80;99.90;;;18.83;100.00;100761.38;5002998;28;20065;-78
2023/06/17 09:15:08;;;;;;;25.17;19.05;;;19.60;99.90;;;19.26;100.00;100777.84;4972470;28;20122;-80
2023/06/17 09:17:37;;;;;;;;;;;19.70;99.90;;;18.69;100.00;100744.44;4986148;28;20035;-78
2023/06/17 09:20:13;;;;;;;23.75;18.63;;;19.60;99.90;;;19.24;100.00;100775.38;4991222;28;19925;-79
2023/06/17 09:22:47;;;;;;;24.98;18.02;;;19.80;99.90;;;19.28;100.00;100772.88;4973375;28;20049;-77
2023/06/17 09:25:15;;;;;;;27.83;19.27;;;19.90;99.90;;;19.05;100.00;100772.25;4998361;28;20394;-78
2023/06/17 09:27:53;;;;;;;25.23;18.73;;;19.90;99.90;;;18.90;100.00;100769.41;4974334;28;20082;-80
2023/06/17 09:30:22;;;;;;;24.58;19.23;;;19.60;99.90;;;19.01;100.00;100771.13;4986902;28;20056;-77
2023/06/17 09:32:51;;;;;;;26.05;20.00;;;19.60;99.90;;;19.01;100.00;100765.59;4975875;28;20138;-77
2023/06/17 09:35:18;;;;;;;29.30;18.85;;;19.70;99.90;;;19.46;100.00;100759.66;4983455;28;20066;-77
2023/06/17 09:37:53;;;;;;;26.77;17.75;;;20.00;99.90;;;19.66;98.97;100776.28;4983441;28;20478;-77
2023/06/17 09:40:28;;;;;;;25.10;18.88;;;20.30;99.90;;;19.16;100.00;100761.25;4980751;28;20117;-78
2023/06/17 09:42:58;;;;;;;22.77;17.52;;;20.00;99.90;;;19.47;100.00;100762.13;4974862;28;20114;-76
2023/06/17 09:45:26;;;;;;;25.17;18.33;;;19.90;99.90;;;19.66;99.03;100759.69;4983207;28;20475;-83
2023/06/17 09:47:54;;;;;;;28.42;19.15;;;20.20;99.90;;;19.89;97.14;100757.47;4983851;28;20046;-78
2023/06/17 09:50:22;;;;;;;37.05;18.60;;;20.40;99.90;;;19.79;98.86;100757.47;4982730;28;20078;-77
2023/06/17 09:52:52;;;;;;;26.48;18.77;;;20.40;99.90;;;20.11;96.70;100759.13;4982031;28;20114;-75
2023/06/17 09:55:19;;;;;;;23.92;17.95;;;20.50;99.90;;;;;;4985659;28;20118;-77